sensor_id;sensor_type;location;lat;lon;timestamp;P1;durP1;ratioP1;P2;durP2;ratioP2
6671;SDS011;3372;48.690;12.362;2024-02-23T00:01:59;9.23;;;7.45;;
6671;SDS011;3372;48.690;12.362;2024-02-23T00:04:25;8.75;;;5.85;;
6671;SDS011;3372;48.690;12.362;2024-02-23T00:06:51;9.50;;;6.35;;
6671;SDS011;3372;48.690;12.362;2024-02-23T00:09:17;8.40;;;6.43;;
6671;SDS011;3372;48.690;12.362;2024-02-23T00:11:43;8.82;;;6.00;;
6671;SDS011;3372;48.690;12.362;2024-02-23T00:14:12;12.38;;;6.68;;
6671;SDS011;3372;48.690;12.362;2024-02-23T00:16:41;8.15;;;5.57;;
6671;SDS011;3372;48.690;12.362;2024-02-23T00:19:08;9.80;;;6.53;;
6671;SDS011;3372;48.690;12.362;2024-02-23T00:21:37;8.02;;;6.22;;
6671;SDS011;3372;48.690;12.362;2024-02-23T00:24:03;6.93;;;5.88;;
6671;SDS011;3372;48.690;12.362;2024-02-23T00:26:30;9.27;;;7.00;;
6671;SDS011;3372;48.690;12.362;2024-02-23T00:28:56;6.47;;;5.68;;
6671;SDS011;3372;48.690;12.362;2024-02-23T00:31:22;8.63;;;6.05;;
6671;SDS011;3372;48.690;12.362;2024-02-23T00:33:48;7.13;;;5.05;;
6671;SDS011;3372;48.690;12.362;2024-02-23T00:36:14;7.68;;;5.38;;
6671;SDS011;3372;48.690;12.362;2024-02-23T00:38:40;7.60;;;5.43;;
6671;SDS011;3372;48.690;12.362;2024-02-23T00:41:06;6.20;;;4.65;;
6671;SDS011;3372;48.690;12.362;2024-02-23T00:43:41;6.72;;;4.68;;
6671;SDS011;3372;48.690;12.362;2024-02-23T00:46:07;5.03;;;3.75;;
6671;SDS011;3372;48.690;12.362;2024-02-23T00:48:34;4.32;;;2.90;;
6671;SDS011;3372;48.690;12.362;2024-02-23T00:51:01;4.43;;;2.97;;
6671;SDS011;3372;48.690;12.362;2024-02-23T00:53:27;3.55;;;2.35;;
6671;SDS011;3372;48.690;12.362;2024-02-23T00:55:53;4.47;;;1.50;;
6671;SDS011;3372;48.690;12.362;2024-02-23T00:58:19;3.42;;;1.75;;
6671;SDS011;3372;48.690;12.362;2024-02-23T01:00:45;2.92;;;1.92;;
6671;SDS011;3372;48.690;12.362;2024-02-23T01:03:11;2.85;;;1.13;;
6671;SDS011;3372;48.690;12.362;2024-02-23T01:05:37;3.20;;;1.23;;
6671;SDS011;3372;48.690;12.362;2024-02-23T01:08:04;2.17;;;0.93;;
6671;SDS011;3372;48.690;12.362;2024-02-23T01:10:30;2.65;;;1.50;;
6671;SDS011;3372;48.690;12.362;2024-02-23T01:12:56;2.58;;;0.80;;
6671;SDS011;3372;48.690;12.362;2024-02-23T01:15:22;2.13;;;0.52;;
6671;SDS011;3372;48.690;12.362;2024-02-23T01:17:48;0.93;;;0.32;;
6671;SDS011;3372;48.690;12.362;2024-02-23T01:20:14;1.00;;;0.52;;
6671;SDS011;3372;48.690;12.362;2024-02-23T01:22:40;2.75;;;0.60;;
6671;SDS011;3372;48.690;12.362;2024-02-23T01:25:06;0.80;;;0.32;;
6671;SDS011;3372;48.690;12.362;2024-02-23T01:27:32;2.25;;;0.13;;
6671;SDS011;3372;48.690;12.362;2024-02-23T01:29:58;1.00;;;0.30;;
6671;SDS011;3372;48.690;12.362;2024-02-23T01:32:24;0.80;;;0.22;;
6671;SDS011;3372;48.690;12.362;2024-02-23T01:34:50;1.08;;;0.20;;
6671;SDS011;3372;48.690;12.362;2024-02-23T01:37:17;0.70;;;0.20;;
6671;SDS011;3372;48.690;12.362;2024-02-23T01:39:43;0.30;;;0.00;;
6671;SDS011;3372;48.690;12.362;2024-02-23T01:42:09;1.33;;;0.20;;
6671;SDS011;3372;48.690;12.362;2024-02-23T01:44:35;0.90;;;0.20;;
6671;SDS011;3372;48.690;12.362;2024-02-23T01:47:01;1.13;;;0.10;;
6671;SDS011;3372;48.690;12.362;2024-02-23T01:49:27;0.30;;;0.20;;
6671;SDS011;3372;48.690;12.362;2024-02-23T01:51:58;0.32;;;0.00;;
6671;SDS011;3372;48.690;12.362;2024-02-23T01:54:24;0.45;;;0.03;;
6671;SDS011;3372;48.690;12.362;2024-02-23T01:56:52;0.32;;;0.00;;
6671;SDS011;3372;48.690;12.362;2024-02-23T01:59:18;0.10;;;0.03;;
6671;SDS011;3372;48.690;12.362;2024-02-23T02:01:45;0.30;;;0.10;;
6671;SDS011;3372;48.690;12.362;2024-02-23T02:04:11;0.10;;;0.00;;
6671;SDS011;3372;48.690;12.362;2024-02-23T02:06:37;0.22;;;0.13;;
6671;SDS011;3372;48.690;12.362;2024-02-23T02:09:03;0.40;;;0.00;;
6671;SDS011;3372;48.690;12.362;2024-02-23T02:11:29;0.30;;;0.00;;
6671;SDS011;3372;48.690;12.362;2024-02-23T02:13:55;1.25;;;0.10;;
6671;SDS011;3372;48.690;12.362;2024-02-23T02:16:21;0.88;;;0.20;;
6671;SDS011;3372;48.690;12.362;2024-02-23T02:18:47;0.10;;;0.00;;
6671;SDS011;3372;48.690;12.362;2024-02-23T02:21:13;0.30;;;0.20;;
6671;SDS011;3372;48.690;12.362;2024-02-23T02:23:39;0.10;;;0.00;;
6671;SDS011;3372;48.690;12.362;2024-02-23T02:26:05;0.20;;;0.00;;
6671;SDS011;3372;48.690;12.362;2024-02-23T02:28:31;2.05;;;0.20;;
6671;SDS011;3372;48.690;12.362;2024-02-23T02:30:57;0.73;;;0.10;;
6671;SDS011;3372;48.690;12.362;2024-02-23T02:33:23;0.30;;;0.10;;
6671;SDS011;3372;48.690;12.362;2024-02-23T02:35:49;0.52;;;0.10;;
6671;SDS011;3372;48.690;12.362;2024-02-23T02:38:15;1.55;;;0.05;;
6671;SDS011;3372;48.690;12.362;2024-02-23T02:40:41;0.20;;;0.05;;
6671;SDS011;3372;48.690;12.362;2024-02-23T02:43:07;1.85;;;0.00;;
6671;SDS011;3372;48.690;12.362;2024-02-23T02:45:33;0.00;;;0.00;;
6671;SDS011;3372;48.690;12.362;2024-02-23T02:47:59;1.30;;;0.08;;
6671;SDS011;3372;48.690;12.362;2024-02-23T02:50:27;0.75;;;0.20;;
6671;SDS011;3372;48.690;12.362;2024-02-23T02:52:53;0.70;;;0.00;;
6671;SDS011;3372;48.690;12.362;2024-02-23T02:55:19;0.20;;;0.00;;
6671;SDS011;3372;48.690;12.362;2024-02-23T02:57:45;0.13;;;0.13;;
6671;SDS011;3372;48.690;12.362;2024-02-23T03:00:11;0.00;;;0.00;;
6671;SDS011;3372;48.690;12.362;2024-02-23T03:02:37;0.75;;;0.00;;
6671;SDS011;3372;48.690;12.362;2024-02-23T03:05:04;0.45;;;0.00;;
6671;SDS011;3372;48.690;12.362;2024-02-23T03:07:30;0.40;;;0.00;;
6671;SDS011;3372;48.690;12.362;2024-02-23T03:09:56;0.20;;;0.00;;
6671;SDS011;3372;48.690;12.362;2024-02-23T03:12:22;0.60;;;0.10;;
6671;SDS011;3372;48.690;12.362;2024-02-23T03:14:48;0.77;;;0.00;;
6671;SDS011;3372;48.690;12.362;2024-02-23T03:17:14;0.20;;;0.00;;
6671;SDS011;3372;48.690;12.362;2024-02-23T03:19:40;0.80;;;0.08;;
6671;SDS011;3372;48.690;12.362;2024-02-23T03:22:06;0.73;;;0.00;;
6671;SDS011;3372;48.690;12.362;2024-02-23T03:24:32;1.52;;;0.00;;
6671;SDS011;3372;48.690;12.362;2024-02-23T03:26:58;2.28;;;0.10;;
6671;SDS011;3372;48.690;12.362;2024-02-23T03:29:24;0.10;;;0.00;;
6671;SDS011;3372;48.690;12.362;2024-02-23T03:31:54;1.60;;;0.00;;
6671;SDS011;3372;48.690;12.362;2024-02-23T03:34:20;0.10;;;0.00;;
6671;SDS011;3372;48.690;12.362;2024-02-23T03:36:46;0.35;;;0.00;;
6671;SDS011;3372;48.690;12.362;2024-02-23T03:39:12;1.10;;;0.08;;
6671;SDS011;3372;48.690;12.362;2024-02-23T03:41:38;0.52;;;0.05;;
6671;SDS011;3372;48.690;12.362;2024-02-23T03:44:04;0.00;;;0.00;;
6671;SDS011;3372;48.690;12.362;2024-02-23T03:46:30;0.85;;;0.03;;
6671;SDS011;3372;48.690;12.362;2024-02-23T03:48:56;0.47;;;0.10;;
6671;SDS011;3372;48.690;12.362;2024-02-23T03:51:22;0.32;;;0.00;;
6671;SDS011;3372;48.690;12.362;2024-02-23T03:53:49;1.42;;;0.17;;
6671;SDS011;3372;48.690;12.362;2024-02-23T03:56:15;2.05;;;0.00;;
6671;SDS011;3372;48.690;12.362;2024-02-23T03:58:41;0.40;;;0.13;;
6671;SDS011;3372;48.690;12.362;2024-02-23T04:01:07;0.13;;;0.03;;
6671;SDS011;3372;48.690;12.362;2024-02-23T04:03:33;1.30;;;0.22;;
6671;SDS011;3372;48.690;12.362;2024-02-23T04:05:59;2.17;;;0.40;;
6671;SDS011;3372;48.690;12.362;2024-02-23T04:08:25;5.72;;;2.10;;
6671;SDS011;3372;48.690;12.362;2024-02-23T04:10:51;7.43;;;1.90;;
6671;SDS011;3372;48.690;12.362;2024-02-23T04:13:17;4.82;;;1.48;;
6671;SDS011;3372;48.690;12.362;2024-02-23T04:15:43;3.40;;;0.75;;
6671;SDS011;3372;48.690;12.362;2024-02-23T04:18:09;2.03;;;0.60;;
6671;SDS011;3372;48.690;12.362;2024-02-23T04:20:35;1.27;;;0.15;;
6671;SDS011;3372;48.690;12.362;2024-02-23T04:23:01;1.88;;;0.25;;
6671;SDS011;3372;48.690;12.362;2024-02-23T04:25:27;1.58;;;0.00;;
6671;SDS011;3372;48.690;12.362;2024-02-23T04:27:53;0.77;;;0.10;;
6671;SDS011;3372;48.690;12.362;2024-02-23T04:30:19;1.55;;;0.00;;
6671;SDS011;3372;48.690;12.362;2024-02-23T04:32:45;1.83;;;0.15;;
6671;SDS011;3372;48.690;12.362;2024-02-23T04:35:11;1.02;;;0.10;;
6671;SDS011;3372;48.690;12.362;2024-02-23T04:37:37;0.98;;;0.00;;
6671;SDS011;3372;48.690;12.362;2024-02-23T04:40:04;1.10;;;0.10;;
6671;SDS011;3372;48.690;12.362;2024-02-23T04:42:30;1.02;;;0.10;;
6671;SDS011;3372;48.690;12.362;2024-02-23T04:44:56;1.65;;;0.00;;
6671;SDS011;3372;48.690;12.362;2024-02-23T04:47:22;0.88;;;0.03;;
6671;SDS011;3372;48.690;12.362;2024-02-23T04:49:48;1.70;;;0.32;;
6671;SDS011;3372;48.690;12.362;2024-02-23T04:52:14;2.38;;;0.70;;
6671;SDS011;3372;48.690;12.362;2024-02-23T04:54:40;1.35;;;0.20;;
6671;SDS011;3372;48.690;12.362;2024-02-23T04:57:06;1.38;;;0.60;;
6671;SDS011;3372;48.690;12.362;2024-02-23T04:59:32;3.65;;;0.82;;
6671;SDS011;3372;48.690;12.362;2024-02-23T05:01:59;3.63;;;0.57;;
6671;SDS011;3372;48.690;12.362;2024-02-23T05:04:25;1.40;;;0.28;;
6671;SDS011;3372;48.690;12.362;2024-02-23T05:06:51;2.05;;;0.47;;
6671;SDS011;3372;48.690;12.362;2024-02-23T05:09:17;1.73;;;0.32;;
6671;SDS011;3372;48.690;12.362;2024-02-23T05:11:43;1.90;;;0.40;;
6671;SDS011;3372;48.690;12.362;2024-02-23T05:14:11;3.22;;;0.35;;
6671;SDS011;3372;48.690;12.362;2024-02-23T05:16:37;2.90;;;0.40;;
6671;SDS011;3372;48.690;12.362;2024-02-23T05:19:03;4.40;;;0.50;;
6671;SDS011;3372;48.690;12.362;2024-02-23T05:21:29;1.55;;;0.10;;
6671;SDS011;3372;48.690;12.362;2024-02-23T05:23:56;2.30;;;0.20;;
6671;SDS011;3372;48.690;12.362;2024-02-23T05:26:22;1.13;;;0.30;;
6671;SDS011;3372;48.690;12.362;2024-02-23T05:28:48;2.28;;;0.32;;
6671;SDS011;3372;48.690;12.362;2024-02-23T05:31:14;1.70;;;0.22;;
6671;SDS011;3372;48.690;12.362;2024-02-23T05:33:40;3.20;;;0.30;;
6671;SDS011;3372;48.690;12.362;2024-02-23T05:36:06;4.82;;;1.38;;
6671;SDS011;3372;48.690;12.362;2024-02-23T05:38:32;5.18;;;2.28;;
6671;SDS011;3372;48.690;12.362;2024-02-23T05:40:58;9.05;;;4.65;;
6671;SDS011;3372;48.690;12.362;2024-02-23T05:43:24;3.42;;;0.90;;
6671;SDS011;3372;48.690;12.362;2024-02-23T05:45:50;1.35;;;0.43;;
6671;SDS011;3372;48.690;12.362;2024-02-23T05:48:16;0.65;;;0.22;;
6671;SDS011;3372;48.690;12.362;2024-02-23T05:50:43;0.50;;;0.17;;
6671;SDS011;3372;48.690;12.362;2024-02-23T05:53:09;2.25;;;0.30;;
6671;SDS011;3372;48.690;12.362;2024-02-23T05:55:35;1.10;;;0.40;;
6671;SDS011;3372;48.690;12.362;2024-02-23T05:58:01;0.55;;;0.13;;
6671;SDS011;3372;48.690;12.362;2024-02-23T06:00:28;2.15;;;0.60;;
6671;SDS011;3372;48.690;12.362;2024-02-23T06:02:56;3.97;;;0.52;;
6671;SDS011;3372;48.690;12.362;2024-02-23T06:05:22;5.03;;;2.22;;
6671;SDS011;3372;48.690;12.362;2024-02-23T06:07:48;3.53;;;2.20;;
6671;SDS011;3372;48.690;12.362;2024-02-23T06:10:14;2.97;;;2.38;;
6671;SDS011;3372;48.690;12.362;2024-02-23T06:12:40;1.42;;;0.30;;
6671;SDS011;3372;48.690;12.362;2024-02-23T06:15:06;0.40;;;0.10;;
6671;SDS011;3372;48.690;12.362;2024-02-23T06:17:32;1.55;;;0.77;;
6671;SDS011;3372;48.690;12.362;2024-02-23T06:19:58;2.08;;;0.60;;
6671;SDS011;3372;48.690;12.362;2024-02-23T06:22:24;2.63;;;1.83;;
6671;SDS011;3372;48.690;12.362;2024-02-23T06:24:50;4.80;;;3.72;;
6671;SDS011;3372;48.690;12.362;2024-02-23T06:27:16;2.90;;;2.17;;
6671;SDS011;3372;48.690;12.362;2024-02-23T06:29:42;2.17;;;0.85;;
6671;SDS011;3372;48.690;12.362;2024-02-23T06:32:08;1.33;;;0.50;;
6671;SDS011;3372;48.690;12.362;2024-02-23T06:34:34;2.00;;;0.60;;
6671;SDS011;3372;48.690;12.362;2024-02-23T06:37:00;1.40;;;0.50;;
6671;SDS011;3372;48.690;12.362;2024-02-23T06:39:26;4.75;;;0.40;;
6671;SDS011;3372;48.690;12.362;2024-02-23T06:41:52;2.10;;;0.90;;
6671;SDS011;3372;48.690;12.362;2024-02-23T06:44:18;2.97;;;1.48;;
6671;SDS011;3372;48.690;12.362;2024-02-23T06:46:44;2.60;;;1.33;;
6671;SDS011;3372;48.690;12.362;2024-02-23T06:49:10;1.17;;;0.22;;
6671;SDS011;3372;48.690;12.362;2024-02-23T06:51:36;0.98;;;0.20;;
6671;SDS011;3372;48.690;12.362;2024-02-23T06:54:05;2.42;;;0.50;;
6671;SDS011;3372;48.690;12.362;2024-02-23T06:56:33;1.75;;;0.40;;
6671;SDS011;3372;48.690;12.362;2024-02-23T06:58:59;2.55;;;0.52;;
6671;SDS011;3372;48.690;12.362;2024-02-23T07:01:25;0.85;;;0.50;;
6671;SDS011;3372;48.690;12.362;2024-02-23T07:03:52;4.00;;;0.30;;
6671;SDS011;3372;48.690;12.362;2024-02-23T07:06:19;0.80;;;0.20;;
6671;SDS011;3372;48.690;12.362;2024-02-23T07:08:45;2.50;;;0.57;;
6671;SDS011;3372;48.690;12.362;2024-02-23T07:11:11;2.13;;;0.40;;
6671;SDS011;3372;48.690;12.362;2024-02-23T07:13:37;2.58;;;0.60;;
6671;SDS011;3372;48.690;12.362;2024-02-23T07:16:03;6.55;;;2.70;;
6671;SDS011;3372;48.690;12.362;2024-02-23T07:18:29;6.28;;;2.80;;
6671;SDS011;3372;48.690;12.362;2024-02-23T07:20:55;4.60;;;1.85;;
6671;SDS011;3372;48.690;12.362;2024-02-23T07:23:21;6.43;;;3.10;;
6671;SDS011;3372;48.690;12.362;2024-02-23T07:25:48;5.38;;;2.40;;
6671;SDS011;3372;48.690;12.362;2024-02-23T07:28:15;3.67;;;2.20;;
6671;SDS011;3372;48.690;12.362;2024-02-23T07:30:44;3.47;;;1.73;;
6671;SDS011;3372;48.690;12.362;2024-02-23T07:33:11;6.28;;;2.90;;
6671;SDS011;3372;48.690;12.362;2024-02-23T07:35:37;5.13;;;1.83;;
6671;SDS011;3372;48.690;12.362;2024-02-23T07:38:03;1.30;;;0.52;;
6671;SDS011;3372;48.690;12.362;2024-02-23T07:40:29;1.80;;;0.52;;
6671;SDS011;3372;48.690;12.362;2024-02-23T07:42:57;1.17;;;0.30;;
6671;SDS011;3372;48.690;12.362;2024-02-23T07:45:22;4.65;;;0.93;;
6671;SDS011;3372;48.690;12.362;2024-02-23T07:47:50;3.72;;;0.60;;
6671;SDS011;3372;48.690;12.362;2024-02-23T07:50:16;8.27;;;2.72;;
6671;SDS011;3372;48.690;12.362;2024-02-23T07:52:43;3.10;;;1.58;;
6671;SDS011;3372;48.690;12.362;2024-02-23T07:55:10;2.38;;;1.00;;
6671;SDS011;3372;48.690;12.362;2024-02-23T07:57:35;3.20;;;0.98;;
6671;SDS011;3372;48.690;12.362;2024-02-23T08:02:29;2.08;;;0.50;;
6671;SDS011;3372;48.690;12.362;2024-02-23T08:04:55;31.70;;;13.98;;
6671;SDS011;3372;48.690;12.362;2024-02-23T08:07:21;32.72;;;16.63;;
6671;SDS011;3372;48.690;12.362;2024-02-23T08:09:47;17.02;;;8.98;;
6671;SDS011;3372;48.690;12.362;2024-02-23T08:12:14;3.75;;;1.55;;
6671;SDS011;3372;48.690;12.362;2024-02-23T08:14:41;2.15;;;0.75;;
6671;SDS011;3372;48.690;12.362;2024-02-23T08:17:08;2.83;;;1.17;;
6671;SDS011;3372;48.690;12.362;2024-02-23T08:19:34;2.03;;;1.10;;
6671;SDS011;3372;48.690;12.362;2024-02-23T08:22:00;2.35;;;0.73;;
6671;SDS011;3372;48.690;12.362;2024-02-23T08:24:26;3.90;;;1.60;;
6671;SDS011;3372;48.690;12.362;2024-02-23T08:26:52;2.85;;;0.95;;
6671;SDS011;3372;48.690;12.362;2024-02-23T08:29:19;2.08;;;1.25;;
6671;SDS011;3372;48.690;12.362;2024-02-23T08:31:44;1.20;;;0.40;;
6671;SDS011;3372;48.690;12.362;2024-02-23T08:34:11;3.25;;;1.40;;
6671;SDS011;3372;48.690;12.362;2024-02-23T08:36:37;1.70;;;0.52;;
6671;SDS011;3372;48.690;12.362;2024-02-23T08:39:03;1.92;;;1.25;;
6671;SDS011;3372;48.690;12.362;2024-02-23T08:41:29;3.10;;;1.30;;
6671;SDS011;3372;48.690;12.362;2024-02-23T08:43:55;1.23;;;0.40;;
6671;SDS011;3372;48.690;12.362;2024-02-23T08:46:21;2.90;;;1.60;;
6671;SDS011;3372;48.690;12.362;2024-02-23T08:48:47;2.40;;;1.00;;
6671;SDS011;3372;48.690;12.362;2024-02-23T08:51:15;2.88;;;1.60;;
6671;SDS011;3372;48.690;12.362;2024-02-23T08:53:45;1.10;;;0.25;;
6671;SDS011;3372;48.690;12.362;2024-02-23T08:56:12;1.92;;;0.45;;
6671;SDS011;3372;48.690;12.362;2024-02-23T08:58:38;1.90;;;0.40;;
6671;SDS011;3372;48.690;12.362;2024-02-23T09:01:04;4.40;;;0.43;;
6671;SDS011;3372;48.690;12.362;2024-02-23T09:03:30;4.05;;;0.75;;
6671;SDS011;3372;48.690;12.362;2024-02-23T09:05:56;1.30;;;0.45;;
6671;SDS011;3372;48.690;12.362;2024-02-23T09:08:24;1.05;;;0.10;;
6671;SDS011;3372;48.690;12.362;2024-02-23T09:10:50;0.77;;;0.30;;
6671;SDS011;3372;48.690;12.362;2024-02-23T09:13:16;1.70;;;0.22;;
6671;SDS011;3372;48.690;12.362;2024-02-23T09:15:42;1.20;;;0.20;;
6671;SDS011;3372;48.690;12.362;2024-02-23T09:18:08;4.03;;;0.08;;
6671;SDS011;3372;48.690;12.362;2024-02-23T09:20:34;0.80;;;0.03;;
6671;SDS011;3372;48.690;12.362;2024-02-23T09:23:00;2.78;;;0.03;;
6671;SDS011;3372;48.690;12.362;2024-02-23T09:25:26;1.42;;;0.08;;
6671;SDS011;3372;48.690;12.362;2024-02-23T09:27:52;0.63;;;0.22;;
6671;SDS011;3372;48.690;12.362;2024-02-23T09:30:18;3.75;;;0.38;;
6671;SDS011;3372;48.690;12.362;2024-02-23T09:32:44;2.83;;;0.52;;
6671;SDS011;3372;48.690;12.362;2024-02-23T09:35:10;3.00;;;1.08;;
6671;SDS011;3372;48.690;12.362;2024-02-23T09:37:36;3.70;;;1.13;;
6671;SDS011;3372;48.690;12.362;2024-02-23T09:40:02;2.45;;;0.52;;
6671;SDS011;3372;48.690;12.362;2024-02-23T09:42:28;3.90;;;0.60;;
6671;SDS011;3372;48.690;12.362;2024-02-23T09:44:58;1.38;;;0.40;;
6671;SDS011;3372;48.690;12.362;2024-02-23T09:49:50;2.67;;;0.40;;
6671;SDS011;3372;48.690;12.362;2024-02-23T09:52:17;1.83;;;0.47;;
6671;SDS011;3372;48.690;12.362;2024-02-23T09:54:44;1.98;;;0.43;;
6671;SDS011;3372;48.690;12.362;2024-02-23T09:57:10;2.05;;;0.55;;
6671;SDS011;3372;48.690;12.362;2024-02-23T09:59:36;1.70;;;0.60;;
6671;SDS011;3372;48.690;12.362;2024-02-23T10:02:23;2.65;;;1.02;;
6671;SDS011;3372;48.690;12.362;2024-02-23T10:04:49;3.42;;;1.40;;
6671;SDS011;3372;48.690;12.362;2024-02-23T10:07:15;5.53;;;2.58;;
6671;SDS011;3372;48.690;12.362;2024-02-23T10:09:41;2.10;;;0.90;;
6671;SDS011;3372;48.690;12.362;2024-02-23T10:12:07;2.45;;;0.52;;
6671;SDS011;3372;48.690;12.362;2024-02-23T10:14:33;1.05;;;0.30;;
6671;SDS011;3372;48.690;12.362;2024-02-23T10:16:59;1.92;;;0.20;;
6671;SDS011;3372;48.690;12.362;2024-02-23T10:21:54;1.00;;;0.35;;
6671;SDS011;3372;48.690;12.362;2024-02-23T10:24:22;1.73;;;0.63;;
6671;SDS011;3372;48.690;12.362;2024-02-23T10:26:51;1.17;;;0.40;;
6671;SDS011;3372;48.690;12.362;2024-02-23T10:29:18;3.67;;;0.90;;
6671;SDS011;3372;48.690;12.362;2024-02-23T10:31:44;2.38;;;0.50;;
6671;SDS011;3372;48.690;12.362;2024-02-23T10:34:14;1.13;;;0.32;;
6671;SDS011;3372;48.690;12.362;2024-02-23T10:36:41;0.90;;;0.32;;
6671;SDS011;3372;48.690;12.362;2024-02-23T10:39:08;1.00;;;0.20;;
6671;SDS011;3372;48.690;12.362;2024-02-23T10:41:35;1.88;;;0.30;;
6671;SDS011;3372;48.690;12.362;2024-02-23T10:44:04;1.75;;;0.70;;
6671;SDS011;3372;48.690;12.362;2024-02-23T10:46:32;1.90;;;1.23;;
6671;SDS011;3372;48.690;12.362;2024-02-23T10:48:59;1.27;;;0.22;;
6671;SDS011;3372;48.690;12.362;2024-02-23T10:51:25;1.73;;;1.00;;
6671;SDS011;3372;48.690;12.362;2024-02-23T10:53:52;1.23;;;0.45;;
6671;SDS011;3372;48.690;12.362;2024-02-23T10:56:18;1.80;;;0.93;;
6671;SDS011;3372;48.690;12.362;2024-02-23T10:58:44;2.55;;;0.65;;
6671;SDS011;3372;48.690;12.362;2024-02-23T11:01:11;0.65;;;0.30;;
6671;SDS011;3372;48.690;12.362;2024-02-23T11:03:38;1.10;;;0.20;;
6671;SDS011;3372;48.690;12.362;2024-02-23T11:06:07;3.03;;;0.55;;
6671;SDS011;3372;48.690;12.362;2024-02-23T11:08:33;0.82;;;0.20;;
6671;SDS011;3372;48.690;12.362;2024-02-23T11:11:08;1.10;;;0.15;;
6671;SDS011;3372;48.690;12.362;2024-02-23T11:13:34;1.15;;;0.47;;
6671;SDS011;3372;48.690;12.362;2024-02-23T11:16:02;0.43;;;0.08;;
6671;SDS011;3372;48.690;12.362;2024-02-23T11:18:28;0.75;;;0.28;;
6671;SDS011;3372;48.690;12.362;2024-02-23T11:20:55;2.33;;;0.32;;
6671;SDS011;3372;48.690;12.362;2024-02-23T11:23:21;1.83;;;0.32;;
6671;SDS011;3372;48.690;12.362;2024-02-23T11:28:29;2.03;;;0.20;;
6671;SDS011;3372;48.690;12.362;2024-02-23T11:30:55;0.90;;;0.25;;
6671;SDS011;3372;48.690;12.362;2024-02-23T11:33:34;5.38;;;2.83;;
6671;SDS011;3372;48.690;12.362;2024-02-23T11:36:07;7.50;;;3.97;;
6671;SDS011;3372;48.690;12.362;2024-02-23T11:38:33;1.90;;;0.90;;
6671;SDS011;3372;48.690;12.362;2024-02-23T11:41:00;3.20;;;1.35;;
6671;SDS011;3372;48.690;12.362;2024-02-23T11:43:26;3.78;;;0.65;;
6671;SDS011;3372;48.690;12.362;2024-02-23T11:45:52;0.90;;;0.40;;
6671;SDS011;3372;48.690;12.362;2024-02-23T11:48:19;1.90;;;0.50;;
6671;SDS011;3372;48.690;12.362;2024-02-23T11:50:47;0.70;;;0.17;;
6671;SDS011;3372;48.690;12.362;2024-02-23T11:53:13;1.33;;;0.45;;
6671;SDS011;3372;48.690;12.362;2024-02-23T11:55:39;1.83;;;0.70;;
6671;SDS011;3372;48.690;12.362;2024-02-23T11:58:05;0.88;;;0.20;;
6671;SDS011;3372;48.690;12.362;2024-02-23T12:00:32;2.88;;;0.30;;
6671;SDS011;3372;48.690;12.362;2024-02-23T12:03:00;1.25;;;0.30;;
6671;SDS011;3372;48.690;12.362;2024-02-23T12:05:26;1.60;;;0.52;;
6671;SDS011;3372;48.690;12.362;2024-02-23T12:07:52;1.25;;;0.43;;
6671;SDS011;3372;48.690;12.362;2024-02-23T12:10:18;2.38;;;0.20;;
6671;SDS011;3372;48.690;12.362;2024-02-23T12:12:44;0.90;;;0.32;;
6671;SDS011;3372;48.690;12.362;2024-02-23T12:15:11;1.38;;;0.25;;
6671;SDS011;3372;48.690;12.362;2024-02-23T12:17:37;1.15;;;0.38;;
6671;SDS011;3372;48.690;12.362;2024-02-23T12:20:03;0.60;;;0.30;;
6671;SDS011;3372;48.690;12.362;2024-02-23T12:22:30;0.77;;;0.10;;
6671;SDS011;3372;48.690;12.362;2024-02-23T12:24:59;1.88;;;0.35;;
6671;SDS011;3372;48.690;12.362;2024-02-23T12:27:25;1.02;;;0.20;;
6671;SDS011;3372;48.690;12.362;2024-02-23T12:29:54;1.33;;;0.40;;
6671;SDS011;3372;48.690;12.362;2024-02-23T12:32:20;1.05;;;0.20;;
6671;SDS011;3372;48.690;12.362;2024-02-23T12:34:47;1.20;;;0.90;;
6671;SDS011;3372;48.690;12.362;2024-02-23T12:37:16;1.85;;;1.27;;
6671;SDS011;3372;48.690;12.362;2024-02-23T12:39:43;1.98;;;0.73;;
6671;SDS011;3372;48.690;12.362;2024-02-23T12:42:09;1.70;;;0.70;;
6671;SDS011;3372;48.690;12.362;2024-02-23T12:44:35;1.83;;;0.38;;
6671;SDS011;3372;48.690;12.362;2024-02-23T12:47:01;1.40;;;0.50;;
6671;SDS011;3372;48.690;12.362;2024-02-23T12:49:28;3.25;;;0.70;;
6671;SDS011;3372;48.690;12.362;2024-02-23T12:51:54;2.78;;;0.65;;
6671;SDS011;3372;48.690;12.362;2024-02-23T12:54:20;1.55;;;0.63;;
6671;SDS011;3372;48.690;12.362;2024-02-23T12:56:46;1.58;;;0.43;;
6671;SDS011;3372;48.690;12.362;2024-02-23T12:59:13;1.67;;;0.38;;
6671;SDS011;3372;48.690;12.362;2024-02-23T13:01:39;1.73;;;0.63;;
6671;SDS011;3372;48.690;12.362;2024-02-23T13:04:05;2.50;;;0.50;;
6671;SDS011;3372;48.690;12.362;2024-02-23T13:06:38;1.23;;;0.28;;
6671;SDS011;3372;48.690;12.362;2024-02-23T13:09:04;2.40;;;0.93;;
6671;SDS011;3372;48.690;12.362;2024-02-23T13:11:33;1.45;;;0.43;;
6671;SDS011;3372;48.690;12.362;2024-02-23T13:13:59;3.05;;;0.38;;
6671;SDS011;3372;48.690;12.362;2024-02-23T13:16:25;3.03;;;0.43;;
6671;SDS011;3372;48.690;12.362;2024-02-23T13:18:51;0.93;;;0.10;;
6671;SDS011;3372;48.690;12.362;2024-02-23T13:21:17;1.67;;;0.40;;
6671;SDS011;3372;48.690;12.362;2024-02-23T13:23:43;1.42;;;0.45;;
6671;SDS011;3372;48.690;12.362;2024-02-23T13:26:09;2.90;;;1.13;;
6671;SDS011;3372;48.690;12.362;2024-02-23T13:28:36;1.80;;;0.38;;
6671;SDS011;3372;48.690;12.362;2024-02-23T13:31:02;1.42;;;0.22;;
6671;SDS011;3372;48.690;12.362;2024-02-23T13:33:28;1.10;;;0.40;;
6671;SDS011;3372;48.690;12.362;2024-02-23T13:35:54;2.28;;;1.30;;
6671;SDS011;3372;48.690;12.362;2024-02-23T13:38:20;1.88;;;0.43;;
6671;SDS011;3372;48.690;12.362;2024-02-23T13:40:47;2.08;;;0.30;;
6671;SDS011;3372;48.690;12.362;2024-02-23T13:43:13;2.45;;;0.20;;
6671;SDS011;3372;48.690;12.362;2024-02-23T13:45:51;2.65;;;0.40;;
6671;SDS011;3372;48.690;12.362;2024-02-23T13:48:18;2.30;;;0.38;;
6671;SDS011;3372;48.690;12.362;2024-02-23T13:50:45;3.42;;;0.65;;
6671;SDS011;3372;48.690;12.362;2024-02-23T13:53:12;1.60;;;0.52;;
6671;SDS011;3372;48.690;12.362;2024-02-23T13:55:38;2.03;;;0.30;;
6671;SDS011;3372;48.690;12.362;2024-02-23T13:58:04;2.05;;;0.55;;
6671;SDS011;3372;48.690;12.362;2024-02-23T14:00:30;1.45;;;0.60;;
6671;SDS011;3372;48.690;12.362;2024-02-23T14:02:56;5.03;;;1.08;;
6671;SDS011;3372;48.690;12.362;2024-02-23T14:05:22;2.40;;;1.50;;
6671;SDS011;3372;48.690;12.362;2024-02-23T14:07:51;1.92;;;0.50;;
6671;SDS011;3372;48.690;12.362;2024-02-23T14:10:18;3.10;;;0.63;;
6671;SDS011;3372;48.690;12.362;2024-02-23T14:12:44;2.10;;;0.40;;
6671;SDS011;3372;48.690;12.362;2024-02-23T14:15:11;1.38;;;0.38;;
6671;SDS011;3372;48.690;12.362;2024-02-23T14:17:37;2.20;;;0.60;;
6671;SDS011;3372;48.690;12.362;2024-02-23T14:20:04;1.33;;;0.30;;
6671;SDS011;3372;48.690;12.362;2024-02-23T14:22:31;1.45;;;0.55;;
6671;SDS011;3372;48.690;12.362;2024-02-23T14:24:57;2.38;;;1.15;;
6671;SDS011;3372;48.690;12.362;2024-02-23T14:27:23;2.95;;;0.32;;
6671;SDS011;3372;48.690;12.362;2024-02-23T14:29:49;1.70;;;0.40;;
6671;SDS011;3372;48.690;12.362;2024-02-23T14:32:18;5.90;;;1.67;;
6671;SDS011;3372;48.690;12.362;2024-02-23T14:34:44;3.50;;;1.00;;
6671;SDS011;3372;48.690;12.362;2024-02-23T14:37:11;4.32;;;1.95;;
6671;SDS011;3372;48.690;12.362;2024-02-23T14:39:37;4.28;;;2.33;;
6671;SDS011;3372;48.690;12.362;2024-02-23T14:42:03;2.42;;;0.80;;
6671;SDS011;3372;48.690;12.362;2024-02-23T14:44:29;0.77;;;0.20;;
6671;SDS011;3372;48.690;12.362;2024-02-23T14:46:55;1.30;;;0.65;;
6671;SDS011;3372;48.690;12.362;2024-02-23T14:49:21;3.83;;;0.52;;
6671;SDS011;3372;48.690;12.362;2024-02-23T14:51:47;1.73;;;0.13;;
6671;SDS011;3372;48.690;12.362;2024-02-23T14:54:13;1.38;;;0.38;;
6671;SDS011;3372;48.690;12.362;2024-02-23T14:56:40;1.33;;;0.43;;
6671;SDS011;3372;48.690;12.362;2024-02-23T14:59:06;1.27;;;0.20;;
6671;SDS011;3372;48.690;12.362;2024-02-23T15:01:38;1.52;;;0.30;;
6671;SDS011;3372;48.690;12.362;2024-02-23T15:04:06;1.30;;;0.43;;
6671;SDS011;3372;48.690;12.362;2024-02-23T15:06:33;1.98;;;0.82;;